sensor_id;sensor_type;location;lat;lon;timestamp;P1;durP1;ratioP1;P2;durP2;ratioP2
80366;SDS011;70058;42.660;23.366;2023-07-13T00:00:19;11.10;;;6.60;;
80366;SDS011;70058;42.660;23.366;2023-07-13T00:02:45;19.15;;;7.25;;
80366;SDS011;70058;42.660;23.366;2023-07-13T00:05:11;15.93;;;6.70;;
80366;SDS011;70058;42.660;23.366;2023-07-13T00:07:36;19.08;;;6.80;;
80366;SDS011;70058;42.660;23.366;2023-07-13T00:10:03;16.45;;;6.30;;
80366;SDS011;70058;42.660;23.366;2023-07-13T00:12:30;13.15;;;6.20;;
80366;SDS011;70058;42.660;23.366;2023-07-13T00:15:04;12.52;;;6.85;;
80366;SDS011;70058;42.660;23.366;2023-07-13T00:17:31;15.68;;;6.57;;
80366;SDS011;70058;42.660;23.366;2023-07-13T00:19:57;11.32;;;5.97;;
80366;SDS011;70058;42.660;23.366;2023-07-13T00:22:23;13.90;;;6.10;;
80366;SDS011;70058;42.660;23.366;2023-07-13T00:24:53;12.93;;;6.25;;
80366;SDS011;70058;42.660;23.366;2023-07-13T00:27:22;10.48;;;6.40;;
80366;SDS011;70058;42.660;23.366;2023-07-13T00:29:51;12.27;;;6.07;;
80366;SDS011;70058;42.660;23.366;2023-07-13T00:32:17;11.40;;;6.47;;
80366;SDS011;70058;42.660;23.366;2023-07-13T00:34:43;13.20;;;6.40;;
80366;SDS011;70058;42.660;23.366;2023-07-13T00:37:09;13.77;;;6.97;;
80366;SDS011;70058;42.660;23.366;2023-07-13T00:39:36;12.90;;;6.43;;
80366;SDS011;70058;42.660;23.366;2023-07-13T00:42:02;12.20;;;5.95;;
80366;SDS011;70058;42.660;23.366;2023-07-13T00:44:29;12.15;;;6.30;;
80366;SDS011;70058;42.660;23.366;2023-07-13T00:46:55;9.57;;;6.70;;
80366;SDS011;70058;42.660;23.366;2023-07-13T00:49:23;11.38;;;6.50;;
80366;SDS011;70058;42.660;23.366;2023-07-13T00:51:57;12.07;;;6.32;;
80366;SDS011;70058;42.660;23.366;2023-07-13T00:54:36;11.38;;;6.50;;
80366;SDS011;70058;42.660;23.366;2023-07-13T00:57:07;10.43;;;6.55;;
80366;SDS011;70058;42.660;23.366;2023-07-13T00:59:45;11.10;;;6.55;;
80366;SDS011;70058;42.660;23.366;2023-07-13T01:02:14;11.35;;;5.80;;
80366;SDS011;70058;42.660;23.366;2023-07-13T01:04:41;14.15;;;7.30;;
80366;SDS011;70058;42.660;23.366;2023-07-13T01:07:09;9.10;;;6.18;;
80366;SDS011;70058;42.660;23.366;2023-07-13T01:09:35;11.27;;;5.95;;
80366;SDS011;70058;42.660;23.366;2023-07-13T01:12:01;10.63;;;6.90;;
80366;SDS011;70058;42.660;23.366;2023-07-13T01:14:26;13.35;;;6.80;;
80366;SDS011;70058;42.660;23.366;2023-07-13T01:16:52;15.45;;;7.35;;
80366;SDS011;70058;42.660;23.366;2023-07-13T01:19:31;10.63;;;7.28;;
80366;SDS011;70058;42.660;23.366;2023-07-13T01:22:01;12.82;;;7.00;;
80366;SDS011;70058;42.660;23.366;2023-07-13T01:24:33;10.07;;;6.70;;
80366;SDS011;70058;42.660;23.366;2023-07-13T01:27:01;12.73;;;6.75;;
80366;SDS011;70058;42.660;23.366;2023-07-13T01:29:27;12.25;;;6.38;;
80366;SDS011;70058;42.660;23.366;2023-07-13T01:31:53;12.27;;;6.70;;
80366;SDS011;70058;42.660;23.366;2023-07-13T01:34:18;13.05;;;6.50;;
80366;SDS011;70058;42.660;23.366;2023-07-13T01:36:44;13.88;;;6.45;;
80366;SDS011;70058;42.660;23.366;2023-07-13T01:39:10;11.77;;;6.40;;
80366;SDS011;70058;42.660;23.366;2023-07-13T01:41:35;10.88;;;6.60;;
80366;SDS011;70058;42.660;23.366;2023-07-13T01:44:01;10.52;;;6.82;;
80366;SDS011;70058;42.660;23.366;2023-07-13T01:46:27;17.42;;;7.13;;
80366;SDS011;70058;42.660;23.366;2023-07-13T01:48:53;11.50;;;6.78;;
80366;SDS011;70058;42.660;23.366;2023-07-13T01:51:19;15.00;;;7.05;;
80366;SDS011;70058;42.660;23.366;2023-07-13T01:53:45;10.60;;;7.22;;
80366;SDS011;70058;42.660;23.366;2023-07-13T01:56:11;11.88;;;6.90;;
80366;SDS011;70058;42.660;23.366;2023-07-13T01:58:36;15.70;;;7.00;;
80366;SDS011;70058;42.660;23.366;2023-07-13T02:01:02;15.13;;;7.28;;
80366;SDS011;70058;42.660;23.366;2023-07-13T02:03:28;12.23;;;6.60;;
80366;SDS011;70058;42.660;23.366;2023-07-13T02:05:53;12.77;;;7.32;;
80366;SDS011;70058;42.660;23.366;2023-07-13T02:08:19;12.00;;;7.10;;
80366;SDS011;70058;42.660;23.366;2023-07-13T02:10:45;14.27;;;7.28;;
80366;SDS011;70058;42.660;23.366;2023-07-13T02:13:11;10.35;;;6.97;;
80366;SDS011;70058;42.660;23.366;2023-07-13T02:15:40;16.50;;;7.63;;
80366;SDS011;70058;42.660;23.366;2023-07-13T02:18:06;11.30;;;7.38;;
80366;SDS011;70058;42.660;23.366;2023-07-13T02:20:31;13.45;;;7.40;;
80366;SDS011;70058;42.660;23.366;2023-07-13T02:22:57;13.88;;;7.50;;
80366;SDS011;70058;42.660;23.366;2023-07-13T02:25:23;11.57;;;6.72;;
80366;SDS011;70058;42.660;23.366;2023-07-13T02:27:50;14.27;;;7.53;;
80366;SDS011;70058;42.660;23.366;2023-07-13T02:30:15;12.57;;;7.70;;
80366;SDS011;70058;42.660;23.366;2023-07-13T02:32:41;12.75;;;7.38;;
80366;SDS011;70058;42.660;23.366;2023-07-13T02:35:08;14.07;;;7.57;;
80366;SDS011;70058;42.660;23.366;2023-07-13T02:37:34;13.55;;;7.50;;
80366;SDS011;70058;42.660;23.366;2023-07-13T02:40:00;11.80;;;7.47;;
80366;SDS011;70058;42.660;23.366;2023-07-13T02:42:26;12.80;;;7.20;;
80366;SDS011;70058;42.660;23.366;2023-07-13T02:44:51;18.60;;;8.18;;
80366;SDS011;70058;42.660;23.366;2023-07-13T02:47:17;11.27;;;7.57;;
80366;SDS011;70058;42.660;23.366;2023-07-13T02:49:43;13.70;;;7.45;;
80366;SDS011;70058;42.660;23.366;2023-07-13T02:52:09;13.65;;;7.38;;
80366;SDS011;70058;42.660;23.366;2023-07-13T02:54:34;9.82;;;6.57;;
80366;SDS011;70058;42.660;23.366;2023-07-13T02:57:00;10.85;;;7.03;;
80366;SDS011;70058;42.660;23.366;2023-07-13T02:59:26;11.85;;;7.43;;
80366;SDS011;70058;42.660;23.366;2023-07-13T03:01:51;13.75;;;7.10;;
80366;SDS011;70058;42.660;23.366;2023-07-13T03:04:17;10.02;;;6.70;;
80366;SDS011;70058;42.660;23.366;2023-07-13T03:06:44;13.20;;;8.00;;
80366;SDS011;70058;42.660;23.366;2023-07-13T03:09:10;11.38;;;7.65;;
80366;SDS011;70058;42.660;23.366;2023-07-13T03:11:37;13.43;;;8.07;;
80366;SDS011;70058;42.660;23.366;2023-07-13T03:14:03;13.95;;;8.40;;
80366;SDS011;70058;42.660;23.366;2023-07-13T03:16:29;14.80;;;8.68;;
80366;SDS011;70058;42.660;23.366;2023-07-13T03:18:55;12.05;;;8.18;;
80366;SDS011;70058;42.660;23.366;2023-07-13T03:21:21;18.55;;;8.65;;
80366;SDS011;70058;42.660;23.366;2023-07-13T03:23:47;16.48;;;8.82;;
80366;SDS011;70058;42.660;23.366;2023-07-13T03:26:15;16.08;;;8.63;;
80366;SDS011;70058;42.660;23.366;2023-07-13T03:28:43;14.80;;;8.20;;
80366;SDS011;70058;42.660;23.366;2023-07-13T03:31:11;11.60;;;8.20;;
80366;SDS011;70058;42.660;23.366;2023-07-13T03:33:38;15.70;;;8.30;;
80366;SDS011;70058;42.660;23.366;2023-07-13T03:36:05;19.95;;;8.35;;
80366;SDS011;70058;42.660;23.366;2023-07-13T03:38:33;12.40;;;7.50;;
80366;SDS011;70058;42.660;23.366;2023-07-13T03:40:59;13.13;;;7.20;;
80366;SDS011;70058;42.660;23.366;2023-07-13T03:43:25;10.70;;;7.57;;
80366;SDS011;70058;42.660;23.366;2023-07-13T03:45:51;16.85;;;7.93;;
80366;SDS011;70058;42.660;23.366;2023-07-13T03:48:16;18.52;;;7.90;;
80366;SDS011;70058;42.660;23.366;2023-07-13T03:50:42;22.50;;;8.10;;
80366;SDS011;70058;42.660;23.366;2023-07-13T03:53:08;17.38;;;8.00;;
80366;SDS011;70058;42.660;23.366;2023-07-13T03:55:34;14.90;;;7.95;;
80366;SDS011;70058;42.660;23.366;2023-07-13T03:58:00;13.48;;;8.07;;
80366;SDS011;70058;42.660;23.366;2023-07-13T04:00:46;23.65;;;8.95;;
80366;SDS011;70058;42.660;23.366;2023-07-13T04:03:12;13.05;;;7.50;;
80366;SDS011;70058;42.660;23.366;2023-07-13T04:05:37;12.65;;;7.80;;
80366;SDS011;70058;42.660;23.366;2023-07-13T04:08:05;14.88;;;8.50;;
80366;SDS011;70058;42.660;23.366;2023-07-13T04:10:31;11.93;;;8.20;;
80366;SDS011;70058;42.660;23.366;2023-07-13T04:12:56;15.73;;;8.18;;
80366;SDS011;70058;42.660;23.366;2023-07-13T04:15:22;15.88;;;8.05;;
80366;SDS011;70058;42.660;23.366;2023-07-13T04:17:48;13.85;;;7.57;;
80366;SDS011;70058;42.660;23.366;2023-07-13T04:20:13;13.82;;;8.00;;
80366;SDS011;70058;42.660;23.366;2023-07-13T04:22:39;15.13;;;8.27;;
80366;SDS011;70058;42.660;23.366;2023-07-13T04:25:05;11.93;;;7.85;;
80366;SDS011;70058;42.660;23.366;2023-07-13T04:27:31;21.98;;;8.63;;
80366;SDS011;70058;42.660;23.366;2023-07-13T04:29:57;14.07;;;7.90;;
80366;SDS011;70058;42.660;23.366;2023-07-13T04:32:22;13.30;;;8.00;;
80366;SDS011;70058;42.660;23.366;2023-07-13T04:34:48;17.80;;;8.15;;
80366;SDS011;70058;42.660;23.366;2023-07-13T04:37:18;12.68;;;7.78;;
80366;SDS011;70058;42.660;23.366;2023-07-13T04:39:43;18.83;;;8.27;;
80366;SDS011;70058;42.660;23.366;2023-07-13T04:42:09;16.25;;;7.57;;
80366;SDS011;70058;42.660;23.366;2023-07-13T04:44:35;15.27;;;8.02;;
80366;SDS011;70058;42.660;23.366;2023-07-13T04:47:00;16.52;;;7.95;;
80366;SDS011;70058;42.660;23.366;2023-07-13T04:49:26;19.15;;;8.15;;
80366;SDS011;70058;42.660;23.366;2023-07-13T04:51:52;19.08;;;8.82;;
80366;SDS011;70058;42.660;23.366;2023-07-13T04:54:17;23.77;;;8.65;;
80366;SDS011;70058;42.660;23.366;2023-07-13T04:56:43;13.23;;;8.20;;
80366;SDS011;70058;42.660;23.366;2023-07-13T04:59:08;13.82;;;8.35;;
80366;SDS011;70058;42.660;23.366;2023-07-13T05:01:34;19.63;;;8.32;;
80366;SDS011;70058;42.660;23.366;2023-07-13T05:04:00;18.33;;;8.05;;
80366;SDS011;70058;42.660;23.366;2023-07-13T05:06:26;20.35;;;9.05;;
80366;SDS011;70058;42.660;23.366;2023-07-13T05:08:51;18.45;;;8.98;;
80366;SDS011;70058;42.660;23.366;2023-07-13T05:11:17;25.95;;;9.48;;
80366;SDS011;70058;42.660;23.366;2023-07-13T05:13:43;17.70;;;8.60;;
80366;SDS011;70058;42.660;23.366;2023-07-13T05:16:09;28.33;;;9.57;;
80366;SDS011;70058;42.660;23.366;2023-07-13T05:18:35;14.35;;;8.80;;
80366;SDS011;70058;42.660;23.366;2023-07-13T05:21:02;16.77;;;8.68;;
80366;SDS011;70058;42.660;23.366;2023-07-13T05:23:31;16.75;;;8.60;;
80366;SDS011;70058;42.660;23.366;2023-07-13T05:25:57;13.40;;;8.30;;
80366;SDS011;70058;42.660;23.366;2023-07-13T05:28:23;13.18;;;8.50;;
80366;SDS011;70058;42.660;23.366;2023-07-13T05:30:50;16.60;;;7.57;;
80366;SDS011;70058;42.660;23.366;2023-07-13T05:33:16;14.73;;;7.57;;
80366;SDS011;70058;42.660;23.366;2023-07-13T05:35:42;14.65;;;8.70;;
80366;SDS011;70058;42.660;23.366;2023-07-13T05:38:07;16.92;;;7.85;;
80366;SDS011;70058;42.660;23.366;2023-07-13T05:40:33;26.05;;;9.35;;
80366;SDS011;70058;42.660;23.366;2023-07-13T05:42:59;15.63;;;9.10;;
80366;SDS011;70058;42.660;23.366;2023-07-13T05:45:24;15.63;;;9.05;;
80366;SDS011;70058;42.660;23.366;2023-07-13T05:47:51;16.15;;;8.63;;
80366;SDS011;70058;42.660;23.366;2023-07-13T05:50:16;16.55;;;8.90;;
80366;SDS011;70058;42.660;23.366;2023-07-13T05:52:42;15.93;;;8.88;;
80366;SDS011;70058;42.660;23.366;2023-07-13T05:55:08;17.95;;;8.20;;
80366;SDS011;70058;42.660;23.366;2023-07-13T05:57:34;14.95;;;8.10;;
80366;SDS011;70058;42.660;23.366;2023-07-13T05:59:59;20.85;;;8.50;;
80366;SDS011;70058;42.660;23.366;2023-07-13T06:02:25;17.92;;;8.35;;
80366;SDS011;70058;42.660;23.366;2023-07-13T06:04:51;16.80;;;8.80;;
80366;SDS011;70058;42.660;23.366;2023-07-13T06:07:17;15.88;;;7.90;;
80366;SDS011;70058;42.660;23.366;2023-07-13T06:09:42;11.82;;;7.40;;
80366;SDS011;70058;42.660;23.366;2023-07-13T06:12:08;18.23;;;8.60;;
80366;SDS011;70058;42.660;23.366;2023-07-13T06:14:34;15.13;;;7.75;;
80366;SDS011;70058;42.660;23.366;2023-07-13T06:17:00;18.23;;;8.88;;
80366;SDS011;70058;42.660;23.366;2023-07-13T06:19:26;13.00;;;7.95;;
80366;SDS011;70058;42.660;23.366;2023-07-13T06:21:51;16.10;;;8.50;;
80366;SDS011;70058;42.660;23.366;2023-07-13T06:24:17;13.73;;;7.25;;
80366;SDS011;70058;42.660;23.366;2023-07-13T06:26:43;19.55;;;7.85;;
80366;SDS011;70058;42.660;23.366;2023-07-13T06:29:08;22.17;;;7.70;;
80366;SDS011;70058;42.660;23.366;2023-07-13T06:31:34;15.30;;;7.60;;
80366;SDS011;70058;42.660;23.366;2023-07-13T06:33:59;22.65;;;7.20;;
80366;SDS011;70058;42.660;23.366;2023-07-13T06:36:25;24.50;;;7.38;;
80366;SDS011;70058;42.660;23.366;2023-07-13T06:38:51;15.02;;;6.97;;
80366;SDS011;70058;42.660;23.366;2023-07-13T06:41:16;16.38;;;7.57;;
80366;SDS011;70058;42.660;23.366;2023-07-13T06:43:42;26.02;;;7.30;;
80366;SDS011;70058;42.660;23.366;2023-07-13T06:46:08;15.15;;;6.80;;
80366;SDS011;70058;42.660;23.366;2023-07-13T06:48:34;17.65;;;7.97;;
80366;SDS011;70058;42.660;23.366;2023-07-13T06:51:01;15.50;;;7.35;;
80366;SDS011;70058;42.660;23.366;2023-07-13T06:53:28;16.60;;;7.50;;
80366;SDS011;70058;42.660;23.366;2023-07-13T06:55:53;17.17;;;8.32;;
80366;SDS011;70058;42.660;23.366;2023-07-13T06:58:19;19.85;;;6.90;;
80366;SDS011;70058;42.660;23.366;2023-07-13T07:00:46;16.35;;;6.57;;
80366;SDS011;70058;42.660;23.366;2023-07-13T07:03:14;15.35;;;6.90;;
80366;SDS011;70058;42.660;23.366;2023-07-13T07:05:40;16.38;;;7.53;;
80366;SDS011;70058;42.660;23.366;2023-07-13T07:08:06;17.40;;;8.00;;
80366;SDS011;70058;42.660;23.366;2023-07-13T07:10:32;18.25;;;7.47;;
80366;SDS011;70058;42.660;23.366;2023-07-13T07:13:01;15.85;;;6.85;;
80366;SDS011;70058;42.660;23.366;2023-07-13T07:15:28;18.45;;;7.28;;
80366;SDS011;70058;42.660;23.366;2023-07-13T07:17:54;15.82;;;6.97;;
80366;SDS011;70058;42.660;23.366;2023-07-13T07:20:19;16.90;;;6.50;;
80366;SDS011;70058;42.660;23.366;2023-07-13T07:22:45;15.50;;;7.05;;
80366;SDS011;70058;42.660;23.366;2023-07-13T07:25:12;15.05;;;7.15;;
80366;SDS011;70058;42.660;23.366;2023-07-13T07:27:37;14.68;;;7.10;;
80366;SDS011;70058;42.660;23.366;2023-07-13T07:30:04;12.00;;;6.57;;
80366;SDS011;70058;42.660;23.366;2023-07-13T07:32:30;15.20;;;7.45;;
80366;SDS011;70058;42.660;23.366;2023-07-13T07:34:56;20.73;;;7.07;;
80366;SDS011;70058;42.660;23.366;2023-07-13T07:37:22;18.38;;;7.28;;
80366;SDS011;70058;42.660;23.366;2023-07-13T07:39:48;15.35;;;6.45;;
80366;SDS011;70058;42.660;23.366;2023-07-13T07:42:14;16.50;;;7.13;;
80366;SDS011;70058;42.660;23.366;2023-07-13T07:44:40;27.02;;;7.40;;
80366;SDS011;70058;42.660;23.366;2023-07-13T07:47:06;21.17;;;7.35;;
80366;SDS011;70058;42.660;23.366;2023-07-13T07:49:32;16.50;;;6.80;;
80366;SDS011;70058;42.660;23.366;2023-07-13T07:51:58;11.63;;;7.15;;
80366;SDS011;70058;42.660;23.366;2023-07-13T07:54:24;10.45;;;6.25;;
80366;SDS011;70058;42.660;23.366;2023-07-13T07:56:49;13.05;;;6.65;;
80366;SDS011;70058;42.660;23.366;2023-07-13T07:59:15;16.20;;;7.10;;
80366;SDS011;70058;42.660;23.366;2023-07-13T08:01:40;16.48;;;6.93;;
80366;SDS011;70058;42.660;23.366;2023-07-13T08:04:06;17.60;;;6.45;;
80366;SDS011;70058;42.660;23.366;2023-07-13T08:06:32;17.27;;;6.28;;
80366;SDS011;70058;42.660;23.366;2023-07-13T08:08:58;19.20;;;6.63;;
80366;SDS011;70058;42.660;23.366;2023-07-13T08:11:24;14.23;;;6.15;;
80366;SDS011;70058;42.660;23.366;2023-07-13T08:13:50;13.02;;;6.03;;
80366;SDS011;70058;42.660;23.366;2023-07-13T08:16:16;13.75;;;5.70;;
80366;SDS011;70058;42.660;23.366;2023-07-13T08:18:42;12.07;;;5.57;;
80366;SDS011;70058;42.660;23.366;2023-07-13T08:21:08;14.20;;;6.10;;
80366;SDS011;70058;42.660;23.366;2023-07-13T08:23:34;12.00;;;6.07;;
80366;SDS011;70058;42.660;23.366;2023-07-13T08:26:00;15.50;;;5.95;;
80366;SDS011;70058;42.660;23.366;2023-07-13T08:28:26;13.43;;;5.63;;
80366;SDS011;70058;42.660;23.366;2023-07-13T08:30:53;27.45;;;6.38;;
80366;SDS011;70058;42.660;23.366;2023-07-13T08:33:19;26.23;;;7.07;;
80366;SDS011;70058;42.660;23.366;2023-07-13T08:35:48;33.88;;;8.45;;
80366;SDS011;70058;42.660;23.366;2023-07-13T08:38:14;30.50;;;7.45;;
80366;SDS011;70058;42.660;23.366;2023-07-13T08:40:41;12.80;;;5.75;;
80366;SDS011;70058;42.660;23.366;2023-07-13T08:43:15;13.40;;;5.72;;
80366;SDS011;70058;42.660;23.366;2023-07-13T08:45:47;16.30;;;5.57;;
80366;SDS011;70058;42.660;23.366;2023-07-13T08:48:27;17.05;;;5.57;;
80366;SDS011;70058;42.660;23.366;2023-07-13T08:54:10;16.08;;;5.68;;
80366;SDS011;70058;42.660;23.366;2023-07-13T08:56:38;10.48;;;5.40;;
80366;SDS011;70058;42.660;23.366;2023-07-13T08:59:14;14.93;;;5.80;;
80366;SDS011;70058;42.660;23.366;2023-07-13T09:01:50;14.15;;;5.63;;
80366;SDS011;70058;42.660;23.366;2023-07-13T09:04:37;14.32;;;5.60;;
80366;SDS011;70058;42.660;23.366;2023-07-13T09:10:23;18.60;;;5.15;;
80366;SDS011;70058;42.660;23.366;2023-07-13T09:15:52;12.93;;;5.10;;
80366;SDS011;70058;42.660;23.366;2023-07-13T09:18:21;14.00;;;5.72;;
80366;SDS011;70058;42.660;23.366;2023-07-13T09:23:56;17.65;;;6.40;;
80366;SDS011;70058;42.660;23.366;2023-07-13T09:26:28;19.45;;;7.07;;
80366;SDS011;70058;42.660;23.366;2023-07-13T09:28:58;13.55;;;6.03;;
80366;SDS011;70058;42.660;23.366;2023-07-13T09:31:35;12.80;;;6.00;;
80366;SDS011;70058;42.660;23.366;2023-07-13T09:34:08;19.08;;;6.03;;
80366;SDS011;70058;42.660;23.366;2023-07-13T09:36:35;12.30;;;5.70;;
80366;SDS011;70058;42.660;23.366;2023-07-13T09:39:05;17.05;;;6.18;;
80366;SDS011;70058;42.660;23.366;2023-07-13T09:44:30;12.07;;;6.15;;
80366;SDS011;70058;42.660;23.366;2023-07-13T09:46:59;11.15;;;5.65;;
80366;SDS011;70058;42.660;23.366;2023-07-13T09:49:28;14.48;;;5.43;;
80366;SDS011;70058;42.660;23.366;2023-07-13T09:52:10;13.30;;;5.75;;
80366;SDS011;70058;42.660;23.366;2023-07-13T09:54:39;13.38;;;5.18;;
80366;SDS011;70058;42.660;23.366;2023-07-13T09:57:15;17.17;;;5.45;;
80366;SDS011;70058;42.660;23.366;2023-07-13T09:59:43;16.17;;;5.13;;
80366;SDS011;70058;42.660;23.366;2023-07-13T10:02:32;12.30;;;5.32;;
80366;SDS011;70058;42.660;23.366;2023-07-13T10:05:07;12.13;;;5.43;;
80366;SDS011;70058;42.660;23.366;2023-07-13T10:07:43;14.50;;;4.90;;
80366;SDS011;70058;42.660;23.366;2023-07-13T10:10:20;15.02;;;4.97;;
80366;SDS011;70058;42.660;23.366;2023-07-13T10:12:47;10.52;;;4.60;;
80366;SDS011;70058;42.660;23.366;2023-07-13T10:15:15;9.70;;;4.22;;
80366;SDS011;70058;42.660;23.366;2023-07-13T10:17:43;14.18;;;3.75;;
80366;SDS011;70058;42.660;23.366;2023-07-13T10:20:10;12.90;;;3.58;;
80366;SDS011;70058;42.660;23.366;2023-07-13T10:25:27;14.30;;;5.28;;
80366;SDS011;70058;42.660;23.366;2023-07-13T10:27:58;14.50;;;4.40;;
80366;SDS011;70058;42.660;23.366;2023-07-13T10:30:41;10.45;;;3.80;;
80366;SDS011;70058;42.660;23.366;2023-07-13T10:33:12;7.47;;;3.42;;
80366;SDS011;70058;42.660;23.366;2023-07-13T10:35:39;9.07;;;3.42;;
80366;SDS011;70058;42.660;23.366;2023-07-13T10:38:11;11.48;;;3.90;;
80366;SDS011;70058;42.660;23.366;2023-07-13T10:40:55;9.73;;;3.75;;
80366;SDS011;70058;42.660;23.366;2023-07-13T10:43:35;10.32;;;3.70;;
80366;SDS011;70058;42.660;23.366;2023-07-13T10:46:08;12.60;;;4.68;;
80366;SDS011;70058;42.660;23.366;2023-07-13T10:48:37;14.18;;;4.30;;
80366;SDS011;70058;42.660;23.366;2023-07-13T10:51:05;9.23;;;4.47;;
80366;SDS011;70058;42.660;23.366;2023-07-13T10:53:36;9.63;;;3.97;;
80366;SDS011;70058;42.660;23.366;2023-07-13T10:56:50;12.07;;;4.13;;
80366;SDS011;70058;42.660;23.366;2023-07-13T11:01:46;20.75;;;4.60;;
80366;SDS011;70058;42.660;23.366;2023-07-13T11:04:14;26.30;;;6.53;;
80366;SDS011;70058;42.660;23.366;2023-07-13T11:06:41;35.15;;;6.32;;
80366;SDS011;70058;42.660;23.366;2023-07-13T11:09:19;45.70;;;5.90;;
80366;SDS011;70058;42.660;23.366;2023-07-13T11:12:00;30.75;;;5.57;;
80366;SDS011;70058;42.660;23.366;2023-07-13T11:16:53;11.55;;;4.57;;
80366;SDS011;70058;42.660;23.366;2023-07-13T11:24:48;10.50;;;4.55;;
80366;SDS011;70058;42.660;23.366;2023-07-13T11:27:21;20.70;;;6.03;;
80366;SDS011;70058;42.660;23.366;2023-07-13T11:32:33;10.00;;;4.53;;
80366;SDS011;70058;42.660;23.366;2023-07-13T11:34:59;10.93;;;4.25;;
80366;SDS011;70058;42.660;23.366;2023-07-13T11:37:25;12.38;;;4.70;;
80366;SDS011;70058;42.660;23.366;2023-07-13T11:39:53;10.82;;;4.47;;
80366;SDS011;70058;42.660;23.366;2023-07-13T11:42:20;8.52;;;4.40;;
80366;SDS011;70058;42.660;23.366;2023-07-13T11:44:50;10.93;;;4.40;;
80366;SDS011;70058;42.660;23.366;2023-07-13T11:47:22;13.50;;;4.70;;
80366;SDS011;70058;42.660;23.366;2023-07-13T11:49:54;11.55;;;4.70;;
80366;SDS011;70058;42.660;23.366;2023-07-13T11:52:31;9.75;;;5.05;;
80366;SDS011;70058;42.660;23.366;2023-07-13T11:55:00;21.60;;;6.20;;
80366;SDS011;70058;42.660;23.366;2023-07-13T11:59:59;11.18;;;5.00;;
80366;SDS011;70058;42.660;23.366;2023-07-13T12:04:58;14.43;;;5.20;;
80366;SDS011;70058;42.660;23.366;2023-07-13T12:07:28;18.92;;;5.35;;
80366;SDS011;70058;42.660;23.366;2023-07-13T12:12:34;12.18;;;4.72;;
80366;SDS011;70058;42.660;23.366;2023-07-13T12:15:08;15.63;;;4.63;;
80366;SDS011;70058;42.660;23.366;2023-07-13T12:17:36;9.23;;;4.53;;
80366;SDS011;70058;42.660;23.366;2023-07-13T12:20:04;9.13;;;4.65;;
80366;SDS011;70058;42.660;23.366;2023-07-13T12:22:49;16.90;;;4.75;;
80366;SDS011;70058;42.660;23.366;2023-07-13T12:25:16;11.60;;;4.97;;
80366;SDS011;70058;42.660;23.366;2023-07-13T12:27:42;13.07;;;5.03;;
80366;SDS011;70058;42.660;23.366;2023-07-13T12:33:05;26.23;;;5.32;;
80366;SDS011;70058;42.660;23.366;2023-07-13T12:35:39;11.90;;;4.88;;
80366;SDS011;70058;42.660;23.366;2023-07-13T12:38:11;17.50;;;4.40;;
80366;SDS011;70058;42.660;23.366;2023-07-13T12:40:38;15.27;;;4.50;;
80366;SDS011;70058;42.660;23.366;2023-07-13T12:43:09;16.80;;;4.55;;
80366;SDS011;70058;42.660;23.366;2023-07-13T12:45:54;14.88;;;4.90;;
80366;SDS011;70058;42.660;23.366;2023-07-13T12:48:24;28.60;;;6.63;;
80366;SDS011;70058;42.660;23.366;2023-07-13T12:50:50;22.90;;;5.93;;
80366;SDS011;70058;42.660;23.366;2023-07-13T12:53:28;13.32;;;4.55;;
80366;SDS011;70058;42.660;23.366;2023-07-13T12:55:59;11.25;;;4.47;;
80366;SDS011;70058;42.660;23.366;2023-07-13T12:58:29;11.93;;;4.88;;
80366;SDS011;70058;42.660;23.366;2023-07-13T13:01:09;17.83;;;5.97;;
80366;SDS011;70058;42.660;23.366;2023-07-13T13:03:44;16.90;;;4.75;;
80366;SDS011;70058;42.660;23.366;2023-07-13T13:08:40;13.05;;;4.40;;
80366;SDS011;70058;42.660;23.366;2023-07-13T13:11:07;30.88;;;5.72;;
80366;SDS011;70058;42.660;23.366;2023-07-13T13:13:34;11.75;;;4.55;;
80366;SDS011;70058;42.660;23.366;2023-07-13T13:18:42;14.60;;;4.35;;
80366;SDS011;70058;42.660;23.366;2023-07-13T13:21:08;15.20;;;4.57;;
80366;SDS011;70058;42.660;23.366;2023-07-13T13:23:35;10.40;;;4.10;;
80366;SDS011;70058;42.660;23.366;2023-07-13T13:26:01;14.98;;;4.25;;
80366;SDS011;70058;42.660;23.366;2023-07-13T13:28:31;12.07;;;4.63;;
80366;SDS011;70058;42.660;23.366;2023-07-13T13:30:57;13.95;;;4.85;;
80366;SDS011;70058;42.660;23.366;2023-07-13T13:33:23;9.20;;;4.28;;
80366;SDS011;70058;42.660;23.366;2023-07-13T13:35:48;17.67;;;4.60;;
80366;SDS011;70058;42.660;23.366;2023-07-13T13:38:15;15.50;;;4.55;;
80366;SDS011;70058;42.660;23.366;2023-07-13T13:40:45;15.70;;;4.30;;
80366;SDS011;70058;42.660;23.366;2023-07-13T13:43:44;20.33;;;5.00;;
80366;SDS011;70058;42.660;23.366;2023-07-13T13:46:02;15.65;;;4.43;;
80366;SDS011;70058;42.660;23.366;2023-07-13T13:48:46;11.02;;;4.03;;
80366;SDS011;70058;42.660;23.366;2023-07-13T13:51:21;19.25;;;5.25;;
80366;SDS011;70058;42.660;23.366;2023-07-13T13:53:48;24.98;;;4.70;;
80366;SDS011;70058;42.660;23.366;2023-07-13T13:56:14;18.85;;;5.18;;
80366;SDS011;70058;42.660;23.366;2023-07-13T13:58:42;13.80;;;4.15;;
80366;SDS011;70058;42.660;23.366;2023-07-13T14:01:26;17.65;;;4.63;;
80366;SDS011;70058;42.660;23.366;2023-07-13T14:03:52;14.85;;;4.72;;
80366;SDS011;70058;42.660;23.366;2023-07-13T14:06:17;15.73;;;4.65;;
80366;SDS011;70058;42.660;23.366;2023-07-13T14:08:43;20.88;;;5.40;;
80366;SDS011;70058;42.660;23.366;2023-07-13T14:11:12;12.57;;;4.15;;
80366;SDS011;70058;42.660;23.366;2023-07-13T14:13:44;15.23;;;4.82;;
80366;SDS011;70058;42.660;23.366;2023-07-13T14:16:21;11.32;;;4.25;;
80366;SDS011;70058;42.660;23.366;2023-07-13T14:18:52;19.77;;;5.13;;
80366;SDS011;70058;42.660;23.366;2023-07-13T14:21:19;15.50;;;5.30;;
80366;SDS011;70058;42.660;23.366;2023-07-13T14:23:47;14.15;;;4.88;;
80366;SDS011;70058;42.660;23.366;2023-07-13T14:26:15;12.05;;;4.15;;
80366;SDS011;70058;42.660;23.366;2023-07-13T14:28:49;14.60;;;4.95;;
80366;SDS011;70058;42.660;23.366;2023-07-13T14:31:16;12.90;;;3.90;;
80366;SDS011;70058;42.660;23.366;2023-07-13T14:33:43;11.60;;;4.22;;
80366;SDS011;70058;42.660;23.366;2023-07-13T14:36:52;13.70;;;4.80;;
80366;SDS011;70058;42.660;23.366;2023-07-13T14:39:09;14.23;;;4.82;;
80366;SDS011;70058;42.660;23.366;2023-07-13T14:41:37;10.90;;;4.90;;
80366;SDS011;70058;42.660;23.366;2023-07-13T14:44:13;13.48;;;4.78;;
80366;SDS011;70058;42.660;23.366;2023-07-13T14:46:39;11.80;;;4.68;;
80366;SDS011;70058;42.660;23.366;2023-07-13T14:49:52;14.00;;;4.65;;
80366;SDS011;70058;42.660;23.366;2023-07-13T14:51:57;11.85;;;4.65;;
80366;SDS011;70058;42.660;23.366;2023-07-13T14:54:24;10.13;;;4.63;;
80366;SDS011;70058;42.660;23.366;2023-07-13T14:56:50;8.77;;;4.80;;
80366;SDS011;70058;42.660;23.366;2023-07-13T14:59:16;12.27;;;4.50;;
80366;SDS011;70058;42.660;23.366;2023-07-13T15:01:44;12.18;;;4.45;;
80366;SDS011;70058;42.660;23.366;2023-07-13T15:04:10;8.98;;;4.05;;
80366;SDS011;70058;42.660;23.366;2023-07-13T15:06:59;14.02;;;4.78;;
80366;SDS011;70058;42.660;23.366;2023-07-13T15:09:27;13.50;;;4.90;;
80366;SDS011;70058;42.660;23.366;2023-07-13T15:11:54;13.43;;;4.78;;
80366;SDS011;70058;42.660;23.366;2023-07-13T15:14:21;13.18;;;4.57;;